Time;durP1;ratioP1;P1;durP2;ratioP2;P2;SDS_P1;SDS_P2;PMS_P1;PMS_P2;Temp;Humidity;BMP_temperature;BMP_pressure;BME280_temperature;BME280_humidity;BME280_pressure;Samples;Min_cycle;Max_cycle;Signal;HPM_P1;HPM_P2
2022/12/14 00:00:44;;;;;;;62.90;24.07;;;;;;;;;;5070987;28;20195;-62
2022/12/14 00:03:11;;;;;;;65.20;24.83;;;;;;;;;;5070400;28;20306;-60
2022/12/14 00:05:37;;;;;;;56.27;23.50;;;0.30;99.90;;;;;;5070673;28;20176;-60
2022/12/14 00:08:03;;;;;;;59.07;23.80;;;0.20;99.90;;;;;;5070754;28;20730;-60
2022/12/14 00:10:29;;;;;;;62.63;25.27;;;;;;;;;;5070531;28;20184;-60
2022/12/14 00:12:55;;;;;;;58.97;23.67;;;0.30;99.90;;;;;;5070474;28;20165;-60
2022/12/14 00:15:21;;;;;;;60.33;24.70;;;0.40;99.90;;;;;;5070849;28;20196;-60
2022/12/14 00:17:47;;;;;;;61.47;23.87;;;0.40;99.90;;;;;;5070716;28;20171;-60
2022/12/14 00:20:13;;;;;;;63.70;25.27;;;;;;;;;;5068161;28;20171;-59
2022/12/14 00:22:39;;;;;;;66.63;25.00;;;;;;;;;;5068095;28;20184;-60
2022/12/14 00:25:05;;;;;;;69.10;25.23;;;0.30;99.90;;;;;;5090757;28;20176;-59
2022/12/14 00:27:31;;;;;;;60.00;24.27;;;0.50;99.90;;;;;;5091016;28;20187;-60
2022/12/14 00:29:57;;;;;;;69.77;26.00;;;0.60;99.90;;;;;;5079874;28;20186;-63
2022/12/14 00:32:23;;;;;;;62.17;25.37;;;0.40;99.90;;;;;;5070667;28;20234;-60
2022/12/14 00:34:49;;;;;;;61.73;25.47;;;;;;;;;;5070700;28;20180;-60
2022/12/14 00:37:15;;;;;;;72.43;27.67;;;;;;;;;;5070333;28;20730;-60
2022/12/14 00:39:41;;;;;;;70.53;25.67;;;;;;;;;;5070722;28;20171;-59
2022/12/14 00:42:07;;;;;;;64.00;24.77;;;;;;;;;;5070255;28;20643;-60
2022/12/14 00:44:33;;;;;;;68.10;26.70;;;0.50;99.90;;;;;;5074299;28;20225;-60
2022/12/14 00:46:59;;;;;;;68.33;26.17;;;;;;;;;;5074210;28;20219;-60
2022/12/14 00:49:26;;;;;;;72.33;27.13;;;;;;;;;;5068488;28;20204;-60
2022/12/14 00:51:52;;;;;;;67.30;26.07;;;;;;;;;;5061852;28;20196;-60
2022/12/14 00:54:18;;;;;;;69.77;25.33;;;;;;;;;;5073089;28;20648;-59
2022/12/14 00:56:44;;;;;;;75.37;28.27;;;;;;;;;;5072337;28;20233;-60
2022/12/14 00:59:10;;;;;;;71.00;26.27;;;;;;;;;;5065467;28;20642;-60
2022/12/14 01:01:36;;;;;;;67.87;26.23;;;;;;;;;;5073979;28;20190;-60
2022/12/14 01:04:18;;;;;;;69.77;27.63;;;;;;;;;;5073996;28;20206;-60
2022/12/14 01:06:47;;;;;;;73.80;26.77;;;0.50;99.90;;;;;;5073175;28;20205;-60
2022/12/14 01:09:13;;;;;;;69.53;26.77;;;0.40;99.90;;;;;;5073633;28;20230;-60
2022/12/14 01:11:40;;;;;;;69.23;27.07;;;0.50;99.90;;;;;;5073587;28;20183;-59
2022/12/14 01:14:06;;;;;;;67.83;26.53;;;0.20;99.90;;;;;;5072126;28;20207;-59
2022/12/14 01:16:32;;;;;;;73.80;27.40;;;0.40;99.90;;;;;;5073979;28;20168;-60
2022/12/14 01:18:59;;;;;;;73.10;27.80;;;0.50;99.90;;;;;;5073689;28;20657;-60
2022/12/14 01:21:24;;;;;;;64.70;25.10;;;0.20;99.90;;;;;;5073698;28;20180;-60
2022/12/14 01:23:52;;;;;;;70.13;27.60;;;0.40;99.90;;;;;;5073725;28;20172;-59
2022/12/14 01:26:18;;;;;;;69.10;27.20;;;0.50;99.90;;;;;;5073652;28;20202;-59
2022/12/14 01:28:46;;;;;;;73.73;28.23;;;0.30;99.90;;;;;;5073712;28;20359;-59
2022/12/14 01:31:14;;;;;;;68.67;26.77;;;0.50;99.90;;;;;;5073577;28;20250;-59
2022/12/14 01:33:40;;;;;;;70.60;26.80;;;;;;;;;;5073514;28;20195;-59
2022/12/14 01:36:12;;;;;;;76.50;27.30;;;0.40;99.90;;;;;;5073324;28;20211;-59
2022/12/14 01:38:38;;;;;;;72.47;27.23;;;;;;;;;;5073666;28;20187;-59
2022/12/14 01:41:05;;;;;;;64.60;26.00;;;0.30;99.90;;;;;;5073477;28;20269;-59
2022/12/14 01:43:54;;;;;;;70.47;27.30;;;0.30;99.90;;;;;;5073501;28;20176;-60
2022/12/14 01:46:24;;;;;;;62.57;24.10;;;0.40;99.90;;;;;;5068070;28;20200;-59
2022/12/14 01:48:54;;;;;;;65.60;26.53;;;0.30;99.90;;;;;;5070025;28;20350;-60
2022/12/14 01:51:20;;;;;;;66.77;26.53;;;;;;;;;;5072711;28;20576;-60
2022/12/14 01:53:47;;;;;;;68.07;26.27;;;;;;;;;;5072215;28;20180;-60
2022/12/14 01:56:13;;;;;;;75.47;28.43;;;;;;;;;;5072160;28;20238;-60
2022/12/14 01:58:39;;;;;;;67.80;27.37;;;;;;;;;;5073067;28;20524;-60
2022/12/14 02:01:04;;;;;;;65.77;26.00;;;0.40;99.90;;;;;;5072637;28;20194;-60
2022/12/14 02:03:37;;;;;;;67.50;27.27;;;0.50;99.90;;;;;;5073033;28;20201;-59
2022/12/14 02:06:10;;;;;;;62.97;25.10;;;0.20;99.90;;;;;;5072543;28;20223;-58
2022/12/14 02:08:37;;;;;;;66.50;26.13;;;0.30;99.90;;;;;;5072487;28;20217;-59
2022/12/14 02:11:03;;;;;;;66.00;25.83;;;0.50;99.90;;;;;;5072526;28;20168;-59
2022/12/14 02:13:36;;;;;;;67.63;27.57;;;0.20;99.90;;;;;;5072360;28;20195;-59
2022/12/14 02:16:02;;;;;;;65.83;26.83;;;;;;;;;;5072178;28;20196;-59
2022/12/14 02:18:30;;;;;;;66.83;26.60;;;0.30;99.90;;;;;;5072667;28;20207;-59
2022/12/14 02:21:20;;;;;;;69.67;27.23;;;0.20;99.90;;;;;;5072580;28;20267;-59
2022/12/14 02:24:03;;;;;;;67.37;26.03;;;-0.10;99.90;;;;;;5072567;28;20229;-59
2022/12/14 02:26:51;;;;;;;66.23;26.20;;;0.00;99.90;;;;;;5059471;28;20173;-59
2022/12/14 02:29:17;;;;;;;68.80;27.63;;;;;;;;;;5052528;28;20215;-59
2022/12/14 02:32:14;;;;;;;70.93;25.63;;;0.10;99.90;;;;;;5052478;28;20178;-58
2022/12/14 02:34:47;;;;;;;61.17;23.57;;;0.10;99.90;;;;;;5052642;28;20184;-58
2022/12/14 02:37:37;;;;;;;65.17;25.13;;;0.10;99.90;;;;;;5052413;28;20216;-59
2022/12/14 02:40:28;;;;;;;64.47;25.13;;;0.10;99.90;;;;;;5050658;28;20177;-60
2022/12/14 02:43:13;;;;;;;63.50;25.90;;;0.00;99.90;;;;;;5051736;28;20177;-59
2022/12/14 02:45:39;;;;;;;65.40;25.60;;;;;;;;;;5052169;28;20169;-59
2022/12/14 02:48:29;;;;;;;61.50;25.20;;;-0.10;99.90;;;;;;5067670;28;20212;-60
2022/12/14 02:51:07;;;;;;;70.03;26.43;;;0.00;99.90;;;;;;5058079;28;20196;-60
2022/12/14 02:53:40;;;;;;;67.47;26.40;;;0.10;99.90;;;;;;5067106;28;20180;-59
2022/12/14 02:56:10;;;;;;;72.27;26.27;;;-0.40;99.90;;;;;;5071472;28;20202;-59
2022/12/14 02:58:45;;;;;;;67.50;26.00;;;-0.30;99.90;;;;;;5055470;28;20211;-59
2022/12/14 03:01:14;;;;;;;61.67;25.27;;;-0.20;99.90;;;;;;5071507;28;20186;-59
2022/12/14 03:03:40;;;;;;;67.83;26.53;;;-0.20;99.90;;;;;;5055949;28;20177;-59
2022/12/14 03:06:24;;;;;;;67.47;25.93;;;-0.70;99.90;;;;;;5069818;28;20617;-59
2022/12/14 03:09:01;;;;;;;66.70;26.80;;;0.00;99.90;;;;;;5057047;28;20249;-60
2022/12/14 03:11:43;;;;;;;64.53;26.03;;;-0.20;99.90;;;;;;5071447;28;20253;-59
2022/12/14 03:14:22;;;;;;;73.23;26.10;;;-0.10;99.90;;;;;;5070915;28;20221;-60
2022/12/14 03:16:50;;;;;;;73.47;27.17;;;-0.20;99.90;;;;;;5071015;28;20184;-60
2022/12/14 03:19:24;;;;;;;74.33;26.93;;;-0.40;99.90;;;;;;5071393;28;20265;-60
2022/12/14 03:22:02;;;;;;;75.80;27.50;;;-0.50;99.90;;;;;;5071359;28;20184;-60
2022/12/14 03:24:41;;;;;;;67.37;24.67;;;-0.20;99.90;;;;;;5070943;28;20193;-59
2022/12/14 03:27:10;;;;;;;76.53;27.13;;;-0.20;99.90;;;;;;5070837;28;20257;-59
2022/12/14 03:29:46;;;;;;;75.50;27.77;;;0.00;99.90;;;;;;5071376;28;20205;-60
2022/12/14 03:32:17;;;;;;;66.77;26.50;;;-0.10;99.90;;;;;;5071132;28;20169;-60
2022/12/14 03:35:03;;;;;;;78.80;27.47;;;-0.10;99.90;;;;;;5070812;28;20271;-59
2022/12/14 03:37:44;;;;;;;73.20;26.83;;;-0.40;99.90;;;;;;5070642;28;20186;-60
2022/12/14 03:40:13;;;;;;;65.53;25.20;;;-0.40;99.90;;;;;;5070409;28;20665;-59
2022/12/14 03:43:04;;;;;;;70.90;26.60;;;-0.20;99.90;;;;;;5069634;28;20263;-59
2022/12/14 03:45:35;;;;;;;70.37;26.33;;;-0.30;99.90;;;;;;4820792;22;20675;-64
2022/12/14 03:48:04;;;;;;;78.40;26.97;;;-0.10;99.90;;;;;;5010294;28;20217;-60
2022/12/14 03:50:48;;;;;;;75.00;27.77;;;0.00;99.90;;;;;;5012631;28;20197;-60
2022/12/14 03:53:25;;;;;;;68.83;25.40;;;0.00;99.90;;;;;;5011435;28;20208;-60
2022/12/14 03:56:16;;;;;;;79.50;27.27;;;-0.20;99.90;;;;;;5011584;28;20246;-60
2022/12/14 03:59:10;;;;;;;70.60;26.63;;;0.00;99.90;;;;;;5011592;28;20198;-60
2022/12/14 04:01:58;;;;;;;73.63;26.73;;;-0.70;99.90;;;;;;4995558;28;20182;-60
2022/12/14 04:04:35;;;;;;;74.80;27.73;;;0.00;99.90;;;;;;5011197;28;20221;-60
2022/12/14 04:07:20;;;;;;;70.40;25.40;;;0.00;99.90;;;;;;5011055;28;20656;-59
2022/12/14 04:09:58;;;;;;;74.37;26.67;;;-0.10;99.90;;;;;;5010984;28;20559;-59
2022/12/14 04:21:53;;;;;;;75.60;25.90;;;-0.10;99.90;;;;;;5015359;28;20199;-60
2022/12/14 04:27:19;;;;;;;64.03;25.20;;;0.00;99.90;;;;;;5015153;28;20284;-59
2022/12/14 04:29:56;;;;;;;69.57;26.30;;;0.00;99.90;;;;;;5014763;28;20221;-60
2022/12/14 04:32:28;;;;;;;76.27;25.60;;;-0.20;99.90;;;;;;5014930;28;20195;-59
2022/12/14 04:35:23;;;;;;;76.80;26.77;;;-0.30;99.90;;;;;;5014720;28;20273;-60
2022/12/14 04:38:01;;;;;;;72.73;25.53;;;0.00;99.90;;;;;;5015438;28;20272;-60
2022/12/14 04:40:34;;;;;;;72.93;27.57;;;-0.30;99.90;;;;;;4995370;28;20194;-59
2022/12/14 04:43:26;;;;;;;83.87;28.00;;;-0.20;99.90;;;;;;5009219;28;20214;-60
2022/12/14 04:45:52;;;;;;;72.87;27.47;;;;;;;;;;4995036;28;20239;-60
2022/12/14 04:48:38;;;;;;;73.43;24.80;;;0.00;99.90;;;;;;5013754;28;20317;-60
2022/12/14 04:51:14;;;;;;;63.40;24.37;;;-0.30;99.90;;;;;;4993294;28;20224;-60
2022/12/14 04:53:43;;;;;;;71.47;24.63;;;-0.60;99.90;;;;;;5012913;28;20178;-61
2022/12/14 04:56:09;;;;;;;73.07;26.60;;;;;;;;;;4994734;28;20667;-60
2022/12/14 04:58:35;;;;;;;75.47;26.70;;;;;;;;;;5013367;28;20178;-60
2022/12/14 05:01:34;;;;;;;69.53;25.03;;;-0.60;99.90;;;;;;5014344;28;20183;-60
2022/12/14 05:04:11;;;;;;;70.47;24.00;;;0.60;99.90;;;;;;5014429;28;20186;-60
2022/12/14 05:06:52;;;;;;;73.00;26.17;;;0.10;99.90;;;;;;5014571;28;20170;-60
2022/12/14 05:09:31;;;;;;;71.43;24.97;;;-0.50;99.90;;;;;;5013046;28;20728;-60
2022/12/14 05:12:06;;;;;;;63.17;24.33;;;-0.20;99.90;;;;;;4999487;28;20177;-60
2022/12/14 05:14:34;;;;;;;69.57;26.40;;;0.30;99.90;;;;;;5012931;28;20184;-60
2022/12/14 05:17:04;;;;;;;71.03;24.60;;;0.00;99.90;;;;;;5012837;28;20167;-60
2022/12/14 05:19:30;;;;;;;64.70;25.83;;;;;;;;;;5014278;28;20280;-59
2022/12/14 05:21:56;;;;;;;76.67;25.57;;;;;;;;;;5014099;28;20264;-59
2022/12/14 05:24:22;;;;;;;72.50;24.97;;;;;;;;;;5014114;28;20179;-61
2022/12/14 05:26:48;;;;;;;81.57;27.50;;;;;;;;;;5014002;28;20217;-59
2022/12/14 05:29:15;;;;;;;72.67;26.37;;;;;;;;;;5013807;28;20620;-59
2022/12/14 05:31:41;;;;;;;78.73;26.37;;;;;;;;;;5013996;28;20186;-59
2022/12/14 05:34:07;;;;;;;73.10;27.30;;;;;;;;;;5014023;28;20182;-57
2022/12/14 05:36:34;;;;;;;67.20;25.73;;;;;;;;;;5013618;28;20170;-59
2022/12/14 05:39:00;;;;;;;75.50;28.27;;;;;;;;;;5013797;28;20211;-59
2022/12/14 05:41:26;;;;;;;68.97;26.20;;;;;;;;;;5013816;28;20206;-59
2022/12/14 05:43:52;;;;;;;75.67;27.80;;;;;;;;;;5012282;28;20541;-60
2022/12/14 05:46:18;;;;;;;73.20;26.53;;;;;;;;;;5012645;28;20253;-59
2022/12/14 05:48:44;;;;;;;73.83;26.43;;;0.20;99.90;;;;;;5009063;28;20229;-60
2022/12/14 05:51:11;;;;;;;78.97;26.90;;;0.00;99.90;;;;;;5004929;28;20185;-60
2022/12/14 05:53:38;;;;;;;66.53;25.57;;;-0.10;99.90;;;;;;5008981;28;20184;-61
2022/12/14 05:56:05;;;;;;;76.77;26.47;;;0.10;99.90;;;;;;5013363;28;20654;-61
2022/12/14 05:58:31;;;;;;;69.40;25.57;;;0.00;99.90;;;;;;5013499;28;20174;-60
2022/12/14 06:01:05;;;;;;;71.93;26.33;;;-0.10;99.90;;;;;;5013388;28;20177;-60
2022/12/14 06:03:30;;;;;;;78.53;27.77;;;0.10;99.90;;;;;;5013508;28;20197;-60
2022/12/14 06:06:08;;;;;;;80.33;26.33;;;0.00;99.90;;;;;;5013257;28;20231;-61
2022/12/14 06:08:36;;;;;;;78.83;26.50;;;0.10;99.90;;;;;;5012935;28;20215;-61
2022/12/14 06:11:16;;;;;;;73.27;26.37;;;0.00;99.90;;;;;;5013103;28;20217;-60
2022/12/14 06:13:42;;;;;;;73.43;27.57;;;-0.10;99.90;;;;;;5013051;28;20182;-60
2022/12/14 06:16:14;;;;;;;74.47;26.80;;;-0.60;99.90;;;;;;5013174;28;20696;-60
2022/12/14 06:18:41;;;;;;;73.93;25.77;;;-0.20;99.90;;;;;;4993460;28;20185;-60
2022/12/14 06:21:07;;;;;;;70.17;24.90;;;;;;;;;;4993374;28;20170;-61
2022/12/14 06:23:33;;;;;;;79.17;26.47;;;0.60;99.90;;;;;;5012736;28;20653;-61
2022/12/14 06:25:59;;;;;;;68.33;25.07;;;;;;;;;;5013101;28;20197;-61
2022/12/14 06:28:25;;;;;;;66.40;23.97;;;;;;;;;;5012624;28;20704;-61
2022/12/14 06:30:51;;;;;;;73.30;25.73;;;;;;;;;;5012937;28;20182;-61
2022/12/14 06:33:16;;;;;;;69.63;25.00;;;-0.10;99.90;;;;;;5012857;28;20201;-60
2022/12/14 06:35:45;;;;;;;84.67;26.63;;;-0.60;99.90;;;;;;5012905;28;20174;-60
2022/12/14 06:38:12;;;;;;;69.87;25.97;;;0.00;99.90;;;;;;5010787;28;20185;-59
2022/12/14 06:40:38;;;;;;;79.93;25.67;;;;;;;;;;4996964;28;20210;-62
2022/12/14 06:43:04;;;;;;;79.93;27.00;;;;;;;;;;5011159;28;20180;-60
2022/12/14 06:45:30;;;;;;;76.80;27.23;;;;;;;;;;5018409;28;20540;-60
2022/12/14 06:47:57;;;;;;;74.77;25.97;;;;;;;;;;5013451;28;20226;-60
2022/12/14 06:50:23;;;;;;;78.40;26.70;;;0.10;99.90;;;;;;5012484;28;20232;-60
2022/12/14 06:52:50;;;;;;;70.27;25.53;;;0.10;99.90;;;;;;5012421;28;20202;-61
2022/12/14 06:55:15;;;;;;;76.00;26.27;;;0.10;99.90;;;;;;5012457;28;20186;-60
2022/12/14 06:57:41;;;;;;;69.43;24.83;;;;;;;;;;5012322;28;20192;-61
2022/12/14 07:00:11;;;;;;;71.50;24.77;;;-0.20;99.90;;;;;;5012313;28;20196;-60
2022/12/14 07:02:37;;;;;;;76.50;24.50;;;0.00;99.90;;;;;;5012039;28;20204;-60
2022/12/14 07:05:04;;;;;;;70.73;24.97;;;0.10;99.90;;;;;;5012056;28;20780;-60
2022/12/14 07:07:32;;;;;;;63.37;22.63;;;-0.10;99.90;;;;;;5012039;28;20174;-60
2022/12/14 07:09:58;;;;;;;66.80;23.67;;;;;;;;;;5012076;28;20178;-61
2022/12/14 07:12:24;;;;;;;62.43;23.77;;;;;;;;;;5012058;28;20172;-61
2022/12/14 07:14:50;;;;;;;67.30;23.37;;;;;;;;;;5012111;28;20266;-60
2022/12/14 07:17:16;;;;;;;66.00;23.30;;;;;;;;;;5011983;28;20252;-60
2022/12/14 07:19:45;;;;;;;66.33;24.20;;;0.30;99.90;;;;;;5011929;28;20649;-60
2022/12/14 07:22:12;;;;;;;68.43;22.83;;;;;;;;;;5011701;28;20183;-60
2022/12/14 07:24:38;;;;;;;63.53;23.03;;;;;;;;;;5011649;28;20514;-60
2022/12/14 07:27:04;;;;;;;66.03;23.57;;;0.70;99.90;;;;;;5011506;28;20185;-60
2022/12/14 07:29:30;;;;;;;64.27;23.97;;;;;;;;;;5011724;28;20233;-60
2022/12/14 07:31:56;;;;;;;66.83;22.10;;;0.00;99.90;;;;;;5011662;28;20198;-61
2022/12/14 07:34:22;;;;;;;60.70;22.97;;;;;;;;;;5010784;28;20236;-60
2022/12/14 07:36:50;;;;;;;67.13;21.63;;;-0.10;99.90;;;;;;5010482;28;20175;-60
2022/12/14 07:39:16;;;;;;;65.13;23.60;;;;;;;;;;5010198;28;20225;-60
2022/12/14 07:41:43;;;;;;;67.57;22.63;;;0.00;99.90;;;;;;5010805;28;20174;-61
2022/12/14 07:44:09;;;;;;;63.93;23.00;;;;;;;;;;5008478;28;20254;-60
2022/12/14 07:46:35;;;;;;;65.53;22.00;;;;;;;;;;5011330;28;20322;-60
2022/12/14 07:49:01;;;;;;;72.10;23.90;;;;;;;;;;5011453;28;20293;-60
2022/12/14 07:51:30;;;;;;;57.27;21.87;;;-0.10;99.90;;;;;;5011453;28;20227;-60
2022/12/14 07:53:56;;;;;;;57.90;21.97;;;-1.10;99.90;;;;;;5011030;28;20170;-60
2022/12/14 07:56:24;;;;;;;63.30;22.27;;;0.00;99.90;;;;;;5011403;28;20177;-60
2022/12/14 07:58:51;;;;;;;68.53;23.70;;;0.10;99.90;;;;;;5011316;28;20246;-60
2022/12/14 08:01:19;;;;;;;65.53;22.40;;;-0.10;99.90;;;;;;5011163;28;20197;-60
2022/12/14 08:03:48;;;;;;;75.77;25.60;;;0.00;99.90;;;;;;5006219;28;20192;-61
2022/12/14 08:06:14;;;;;;;68.00;23.83;;;-0.30;99.90;;;;;;5011401;28;20225;-60
2022/12/14 08:08:41;;;;;;;62.07;21.87;;;-0.20;99.90;;;;;;5010970;28;20229;-59
2022/12/14 08:11:07;;;;;;;71.07;25.17;;;0.10;99.90;;;;;;5011109;28;20181;-60
2022/12/14 08:13:33;;;;;;;68.53;24.53;;;0.40;99.90;;;;;;5010883;28;20933;-60
2022/12/14 08:16:05;;;;;;;67.27;23.23;;;0.30;99.90;;;;;;5011117;28;20205;-59
2022/12/14 08:18:32;;;;;;;63.70;23.27;;;;;;;;;;5011414;28;20269;-59
2022/12/14 08:20:58;;;;;;;68.83;22.77;;;-0.10;99.90;;;;;;5010874;28;20232;-59
2022/12/14 08:23:24;;;;;;;59.43;22.60;;;0.20;99.90;;;;;;5011142;28;20548;-58
2022/12/14 08:25:58;;;;;;;68.73;23.60;;;0.00;99.90;;;;;;5011118;28;20185;-59
2022/12/14 08:28:24;;;;;;;61.30;22.37;;;0.10;99.90;;;;;;5010399;28;20333;-59
2022/12/14 08:30:51;;;;;;;55.30;21.00;;;;;;;;;;5004769;28;20194;-59
2022/12/14 08:33:17;;;;;;;55.27;20.90;;;0.10;99.90;;;;;;5012975;28;20180;-60
2022/12/14 08:35:44;;;;;;;58.57;21.07;;;;;;;;;;5009220;28;20188;-60
2022/12/14 08:38:10;;;;;;;61.90;21.20;;;;;;;;;;5003876;28;20179;-60
2022/12/14 08:40:36;;;;;;;54.17;20.07;;;0.00;99.90;;;;;;5005528;28;20185;-60
2022/12/14 08:43:02;;;;;;;48.33;18.90;;;;;;;;;;5010750;28;20664;-61
2022/12/14 08:45:28;;;;;;;58.30;21.10;;;;;;;;;;5010832;28;20263;-61
2022/12/14 08:47:58;;;;;;;53.30;19.03;;;-0.40;99.90;;;;;;4992985;28;20605;-60
2022/12/14 08:50:24;;;;;;;60.30;21.03;;;0.60;99.90;;;;;;5011041;28;20287;-60
2022/12/14 08:52:50;;;;;;;57.40;21.03;;;;;;;;;;5010602;28;20228;-60
2022/12/14 08:55:16;;;;;;;54.13;20.53;;;-0.10;99.90;;;;;;5010720;28;20231;-60
2022/12/14 08:57:42;;;;;;;52.40;20.53;;;;;;;;;;5010346;28;20174;-61
2022/12/14 09:00:09;;;;;;;55.97;19.53;;;;;;;;;;5010337;28;20224;-60
2022/12/14 09:02:35;;;;;;;53.73;20.47;;;-0.10;99.90;;;;;;5010493;28;20181;-60
2022/12/14 09:05:00;;;;;;;55.20;19.40;;;0.00;99.90;;;;;;5012304;28;20170;-61
2022/12/14 09:07:30;;;;;;;52.03;20.07;;;0.20;99.90;;;;;;5014256;28;20704;-59
2022/12/14 09:09:56;;;;;;;55.73;20.63;;;;;;;;;;5013956;28;20260;-60
2022/12/14 09:12:22;;;;;;;57.77;20.90;;;;;;;;;;5014327;28;20174;-60
2022/12/14 09:14:48;;;;;;;57.23;20.13;;;;;;;;;;5014195;28;20318;-60
2022/12/14 09:17:17;;;;;;;59.73;21.30;;;0.40;99.90;;;;;;5013855;28;20231;-60
2022/12/14 09:19:43;;;;;;;56.17;21.07;;;0.80;99.90;;;;;;5013921;28;20624;-60
2022/12/14 09:22:09;;;;;;;62.23;22.47;;;0.80;99.90;;;;;;5014099;28;20171;-61
2022/12/14 09:24:36;;;;;;;60.47;22.90;;;;;;;;;;5009953;28;20247;-61
2022/12/14 09:27:02;;;;;;;76.03;25.47;;;;;;;;;;5010908;28;20193;-61
2022/12/14 09:29:28;;;;;;;66.53;24.47;;;1.10;99.90;;;;;;5019524;28;20531;-60
2022/12/14 09:31:55;;;;;;;75.40;25.57;;;;;;;;;;5007004;28;20190;-60
2022/12/14 09:34:24;;;;;;;71.97;24.40;;;1.00;99.90;;;;;;5013991;28;20181;-61
2022/12/14 09:36:51;;;;;;;68.27;24.13;;;;;;;;;;5013928;28;20190;-61
2022/12/14 09:39:17;;;;;;;64.10;23.90;;;;;;;;;;5013885;28;20216;-60
2022/12/14 09:41:54;;;;;;;65.70;23.73;;;0.90;99.90;;;;;;5013962;28;20186;-60
2022/12/14 09:44:29;;;;;;;62.40;22.90;;;1.20;99.90;;;;;;5013913;28;20170;-58
2022/12/14 09:47:17;;;;;;;66.17;24.07;;;1.20;99.90;;;;;;5013690;28;20230;-59
2022/12/14 09:50:05;;;;;;;71.80;24.43;;;1.40;99.90;;;;;;5012255;28;20313;-60
2022/12/14 09:52:52;;;;;;;72.10;23.97;;;1.50;99.90;;;;;;5010609;28;20174;-59
2022/12/14 09:55:30;;;;;;;63.90;23.77;;;;;;;;;;5013606;28;20182;-60
2022/12/14 09:58:00;;;;;;;60.93;23.37;;;1.30;99.90;;;;;;5013716;28;20181;-59
2022/12/14 10:00:33;;;;;;;62.03;23.33;;;1.50;99.90;;;;;;5013814;28;20178;-60
2022/12/14 10:03:17;;;;;;;57.33;23.13;;;1.70;99.90;;;;;;5013100;28;20652;-59
2022/12/14 10:06:01;;;;;;;54.87;21.23;;;1.90;99.90;;;;;;5011451;28;20232;-58
2022/12/14 10:08:44;;;;;;;62.07;21.83;;;1.90;99.90;;;;;;5013418;28;20250;-59
2022/12/14 10:11:33;;;;;;;57.30;22.27;;;1.70;99.90;;;;;;5011564;28;20190;-60
2022/12/14 10:14:35;;;;;;;59.43;21.60;;;2.00;99.90;;;;;;4993747;28;20202;-60
2022/12/14 10:17:29;;;;;;;57.63;21.33;;;2.00;99.90;;;;;;5010028;28;20178;-59
2022/12/14 10:19:59;;;;;;;57.60;22.50;;;2.20;99.90;;;;;;5024537;28;20258;-58
2022/12/14 10:22:36;;;;;;;57.20;21.73;;;2.30;99.90;;;;;;4986700;28;20263;-58
2022/12/14 10:25:24;;;;;;;60.40;20.70;;;2.20;99.90;;;;;;5013841;28;20181;-59
2022/12/14 10:28:03;;;;;;;49.07;19.43;;;3.20;99.90;;;;;;5011662;28;20181;-59
2022/12/14 10:30:29;;;;;;;52.67;20.57;;;2.00;99.90;;;;;;5011241;28;20190;-59
2022/12/14 10:33:20;;;;;;;51.73;20.60;;;2.20;99.90;;;;;;5011372;28;20174;-59
2022/12/14 10:35:50;;;;;;;55.50;19.77;;;2.00;99.90;;;;;;5009480;28;20183;-58
2022/12/14 10:38:35;;;;;;;57.03;20.93;;;1.80;99.90;;;;;;5012640;28;20175;-58
2022/12/14 10:41:14;;;;;;;50.73;19.50;;;1.90;99.90;;;;;;5012609;28;20200;-58
2022/12/14 10:43:58;;;;;;;59.10;22.13;;;1.70;99.90;;;;;;5012509;28;20185;-59
2022/12/14 10:46:42;;;;;;;52.97;20.20;;;1.70;99.90;;;;;;5012261;28;20214;-58
2022/12/14 10:49:31;;;;;;;54.70;21.43;;;1.70;99.90;;;;;;5012246;28;20214;-58
2022/12/14 10:52:16;;;;;;;59.27;21.87;;;1.20;99.90;;;;;;5012836;28;20222;-59
2022/12/14 10:54:52;;;;;;;58.93;21.47;;;1.30;99.90;;;;;;5011856;28;20600;-59
2022/12/14 10:57:26;;;;;;;53.80;20.40;;;1.00;99.90;;;;;;5012013;28;20178;-60
2022/12/14 10:59:53;;;;;;;51.23;19.77;;;1.40;99.90;;;;;;5012402;28;20182;-59
2022/12/14 11:02:26;;;;;;;53.80;21.03;;;1.50;99.90;;;;;;5011464;28;20554;-59
2022/12/14 11:04:58;;;;;;;55.80;21.20;;;1.50;99.90;;;;;;5009039;28;20182;-60
2022/12/14 11:07:48;;;;;;;50.90;19.47;;;1.50;99.90;;;;;;5012530;28;20183;-59
2022/12/14 11:10:19;;;;;;;48.47;19.00;;;1.40;99.90;;;;;;5012087;28;20277;-59
2022/12/14 11:12:51;;;;;;;57.23;20.07;;;1.50;99.90;;;;;;5011156;28;20170;-59
2022/12/14 11:15:29;;;;;;;54.63;19.27;;;1.50;99.90;;;;;;5010614;28;20174;-60
2022/12/14 11:18:14;;;;;;;56.23;19.97;;;1.60;99.90;;;;;;5010357;28;20213;-58
2022/12/14 11:20:56;;;;;;;59.87;19.70;;;1.60;99.90;;;;;;5012684;28;20178;-59
2022/12/14 11:23:29;;;;;;;62.40;20.57;;;1.40;99.90;;;;;;5010156;28;20186;-60
2022/12/14 11:26:02;;;;;;;54.77;19.50;;;2.00;99.90;;;;;;5009856;28;20658;-58
2022/12/14 11:28:47;;;;;;;56.27;20.47;;;2.00;99.90;;;;;;5011435;28;20261;-60
2022/12/14 11:31:13;;;;;;;49.50;19.20;;;;;;;;;;5011834;28;20182;-60
2022/12/14 11:33:43;;;;;;;48.03;18.87;;;2.10;99.90;;;;;;5011684;28;20208;-60
2022/12/14 11:36:09;;;;;;;57.67;20.23;;;;;;;;;;5012094;28;20186;-59
2022/12/14 11:38:35;;;;;;;52.50;19.17;;;;;;;;;;5011786;28;20266;-58
2022/12/14 11:41:05;;;;;;;49.20;18.93;;;2.70;99.90;;;;;;5011620;28;20363;-58
2022/12/14 11:43:34;;;;;;;45.83;16.77;;;3.20;99.90;;;;;;5010406;28;20206;-59
2022/12/14 11:46:00;;;;;;;45.57;18.50;;;2.60;99.90;;;;;;5011443;28;20290;-62
2022/12/14 11:48:27;;;;;;;48.37;18.67;;;1.40;99.90;;;;;;5011560;28;20202;-58
2022/12/14 11:51:06;;;;;;;52.50;18.67;;;2.40;99.90;;;;;;5011889;28;20186;-60
2022/12/14 11:53:32;;;;;;;48.47;17.60;;;2.00;99.90;;;;;;5011756;28;20174;-59
2022/12/14 11:56:01;;;;;;;44.87;18.07;;;2.00;99.90;;;;;;5011632;28;20197;-59
2022/12/14 11:58:36;;;;;;;48.73;18.70;;;2.10;99.90;;;;;;5011392;28;20171;-59
2022/12/14 12:01:05;;;;;;;47.83;18.03;;;2.00;99.90;;;;;;5011335;28;20244;-59
2022/12/14 12:03:42;;;;;;;50.47;18.53;;;1.70;99.90;;;;;;5011480;28;20185;-59
2022/12/14 12:06:10;;;;;;;55.03;19.87;;;2.10;99.90;;;;;;5011251;28;20167;-59
2022/12/14 12:08:38;;;;;;;45.13;17.63;;;1.70;99.90;;;;;;5011505;28;20555;-59
2022/12/14 12:11:23;;;;;;;48.53;18.13;;;1.70;99.90;;;;;;5011081;28;20193;-59
2022/12/14 12:13:59;;;;;;;49.80;17.87;;;1.70;99.90;;;;;;5011132;28;20170;-58
2022/12/14 12:16:26;;;;;;;44.00;18.00;;;1.60;99.90;;;;;;5006551;28;20173;-58
2022/12/14 12:19:09;;;;;;;48.13;17.93;;;1.70;99.90;;;;;;5008716;28;20197;-59
2022/12/14 12:21:38;;;;;;;47.87;17.70;;;1.60;99.90;;;;;;5009419;28;20221;-58
2022/12/14 12:24:33;;;;;;;49.30;17.53;;;1.40;99.90;;;;;;5011121;28;20183;-58
2022/12/14 12:27:02;;;;;;;46.63;15.97;;;1.30;99.90;;;;;;5011274;28;20196;-58
2022/12/14 12:29:53;;;;;;;41.90;16.43;;;1.30;99.90;;;;;;5011047;28;20304;-58
2022/12/14 12:32:19;;;;;;;38.67;15.37;;;;;;;;;;5011610;28;20189;-58
2022/12/14 12:35:08;;;;;;;57.27;21.00;;;1.20;99.90;;;;;;5011298;28;20185;-58
2022/12/14 12:38:01;;;;;;;50.30;19.27;;;1.20;99.90;;;;;;5011115;28;20183;-58
2022/12/14 12:40:27;;;;;;;45.40;16.83;;;;;;;;;;5014027;28;20182;-58
2022/12/14 12:43:18;;;;;;;39.23;15.50;;;1.20;99.90;;;;;;5014295;28;20171;-58
2022/12/14 12:46:14;;;;;;;45.40;18.43;;;1.50;99.90;;;;;;5013187;28;20277;-58
2022/12/14 12:48:48;;;;;;;44.63;16.67;;;1.50;99.90;;;;;;5014911;28;20739;-58
2022/12/14 12:51:21;;;;;;;47.33;18.33;;;1.20;99.90;;;;;;5013302;28;20188;-59
2022/12/14 12:53:58;;;;;;;63.50;22.63;;;1.40;99.90;;;;;;5011548;28;20167;-58
2022/12/14 12:56:36;;;;;;;43.93;15.83;;;1.10;99.90;;;;;;5011629;28;20713;-58
2022/12/14 12:59:03;;;;;;;44.67;16.60;;;1.10;99.90;;;;;;5014015;28;20174;-58
2022/12/14 13:01:36;;;;;;;40.30;15.00;;;1.10;99.90;;;;;;5014617;28;20213;-58
2022/12/14 13:04:10;;;;;;;44.53;15.27;;;0.90;99.90;;;;;;5011307;28;20162;-59
2022/12/14 13:06:49;;;;;;;38.30;14.67;;;0.90;99.90;;;;;;5010296;28;20226;-58
2022/12/14 13:09:43;;;;;;;40.50;14.43;;;0.90;99.90;;;;;;5011266;28;20217;-59
2022/12/14 13:12:35;;;;;;;41.60;15.07;;;1.20;99.90;;;;;;5000657;28;20270;-59
2022/12/14 13:15:05;;;;;;;41.60;15.67;;;1.40;99.90;;;;;;5003702;28;20221;-58
2022/12/14 13:17:43;;;;;;;43.27;15.17;;;1.50;99.90;;;;;;4993575;28;20178;-58
2022/12/14 13:20:35;;;;;;;43.30;15.67;;;1.60;99.90;;;;;;4994516;28;20191;-59
2022/12/14 13:23:03;;;;;;;39.93;15.63;;;1.50;99.90;;;;;;4994219;28;20233;-60
2022/12/14 13:25:56;;;;;;;46.17;16.27;;;1.60;99.90;;;;;;4994537;28;20211;-58
2022/12/14 13:28:42;;;;;;;40.77;16.00;;;1.50;99.90;;;;;;5001422;28;20210;-58
2022/12/14 13:31:29;;;;;;;50.63;17.40;;;1.50;99.90;;;;;;5013497;28;20215;-58
2022/12/14 13:34:13;;;;;;;41.70;15.73;;;1.40;99.90;;;;;;5013420;28;20197;-58
2022/12/14 13:36:48;;;;;;;53.73;18.77;;;1.70;99.90;;;;;;4997725;28;20696;-58
2022/12/14 13:39:28;;;;;;;46.37;16.87;;;1.40;99.90;;;;;;5013639;28;20204;-58